createdAt,value
2023-02-28T00:00:22.816Z,60.52
2023-02-28T00:05:28.109Z,60.09
2023-02-28T00:10:34.018Z,59.98
2023-02-28T00:15:37.489Z,60.40
2023-02-28T00:20:40.864Z,59.74
2023-02-28T00:25:45.729Z,59.80
2023-02-28T00:30:49.835Z,59.58
2023-02-28T00:35:53.378Z,60.42
2023-02-28T00:40:58.371Z,60.45
2023-02-28T00:46:02.406Z,60.43
2023-02-28T00:51:06.600Z,60.11
2023-02-28T00:56:11.645Z,60.64
2023-02-28T01:01:15.188Z,60.25
2023-02-28T01:06:18.527Z,60.62
2023-02-28T01:11:23.467Z,61.37
2023-02-28T01:16:27.252Z,60.59
2023-02-28T01:21:31.130Z,60.12
2023-02-28T01:26:36.155Z,60.97
2023-02-28T01:31:39.704Z,60.57
2023-02-28T01:36:43.213Z,60.53
2023-02-28T01:41:47.984Z,60.79
2023-02-28T01:46:51.397Z,61.47
2023-02-28T01:51:58.612Z,60.33
2023-02-28T01:57:06.847Z,61.10
2023-02-28T02:02:10.442Z,61.17
2023-02-28T02:07:16.323Z,61.32
2023-02-28T02:12:31.898Z,61.97
2023-02-28T02:17:41.819Z,61.62
2023-02-28T02:23:16.619Z,61.04
2023-02-28T02:28:53.301Z,61.75
2023-02-28T02:34:30.615Z,60.85
2023-02-28T02:39:42.904Z,61.61
2023-02-28T02:44:51.504Z,61.51
2023-02-28T02:50:00.017Z,60.89
2023-02-28T02:55:06.240Z,61.17
2023-02-28T03:00:12.512Z,61.73
2023-02-28T03:05:23.827Z,62.03
2023-02-28T03:10:35.532Z,61.17
2023-02-28T03:15:50.395Z,61.04
2023-02-28T03:21:07.459Z,61.35
2023-02-28T03:26:19.710Z,61.06
2023-02-28T03:31:28.864Z,60.82
2023-02-28T03:36:45.163Z,60.78
2023-02-28T03:41:53.660Z,61.85
2023-02-28T03:47:01.588Z,60.09
2023-02-28T03:52:09.794Z,60.63
2023-02-28T03:57:21.485Z,60.90
2023-02-28T04:02:24.889Z,61.53
2023-02-28T04:07:32.003Z,60.62
2023-02-28T04:12:35.408Z,60.90
2023-02-28T04:17:38.956Z,60.22
2023-02-28T04:22:43.944Z,60.67
2023-02-28T04:27:47.407Z,60.59
2023-02-28T04:32:50.771Z,59.73
2023-02-28T04:37:55.523Z,59.29
2023-02-28T04:42:59.034Z,59.66
2023-02-28T04:48:02.428Z,58.83
2023-02-28T04:53:07.371Z,59.42
2023-02-28T04:58:10.890Z,59.08
2023-02-28T05:03:14.246Z,58.41
2023-02-28T05:08:19.138Z,58.11
2023-02-28T05:13:22.753Z,57.73
2023-02-28T05:18:26.349Z,57.15
2023-02-28T05:23:31.756Z,56.63
2023-02-28T05:28:35.102Z,56.29
2023-02-28T05:33:38.567Z,55.21
2023-02-28T05:38:43.572Z,54.00
2023-02-28T05:43:47.116Z,53.33
2023-02-28T05:48:51.213Z,51.72
2023-02-28T05:53:55.991Z,51.71
2023-02-28T05:58:59.121Z,50.53
2023-02-28T06:04:03.243Z,49.27
2023-02-28T06:09:08.082Z,48.25
2023-02-28T06:14:15.718Z,48.88
2023-02-28T06:19:19.140Z,49.89
2023-02-28T06:24:25.716Z,50.07
2023-02-28T06:29:29.287Z,50.35
2023-02-28T06:34:32.748Z,49.44
2023-02-28T06:39:37.710Z,48.78
2023-02-28T06:44:41.533Z,48.98
2023-02-28T06:49:46.446Z,49.39
2023-02-28T06:55:00.914Z,48.81
2023-02-28T07:00:08.904Z,48.45
2023-02-28T07:05:12.260Z,48.65
2023-02-28T07:10:20.083Z,48.76
2023-02-28T07:15:23.889Z,48.25
2023-02-28T07:20:27.459Z,48.59
2023-02-28T07:25:32.355Z,48.49
2023-02-28T07:30:35.818Z,48.21
2023-02-28T07:35:39.251Z,48.60
2023-02-28T07:40:44.018Z,48.89
2023-02-28T07:45:49.072Z,49.33
2023-02-28T07:50:57.790Z,49.38
2023-02-28T07:56:04.354Z,49.33
2023-02-28T08:01:09.197Z,49.86
2023-02-28T08:06:19.848Z,49.56
2023-02-28T08:11:24.847Z,49.32
2023-02-28T08:16:28.100Z,48.73
2023-02-28T08:21:31.759Z,49.15
2023-02-28T08:26:36.900Z,50.16
2023-02-28T08:31:40.041Z,50.78
2023-02-28T08:36:43.943Z,50.88
2023-02-28T08:41:53.441Z,50.81
2023-02-28T08:47:02.588Z,51.59
2023-02-28T08:52:06.229Z,50.67
2023-02-28T08:57:11.059Z,50.67
2023-02-28T09:02:15.340Z,50.39
2023-02-28T09:07:18.768Z,50.76
2023-02-28T09:12:24.166Z,51.40
2023-02-28T09:17:30.640Z,50.88
2023-02-28T09:22:34.525Z,50.89
2023-02-28T09:27:40.061Z,51.33
2023-02-28T09:32:53.322Z,52.14
2023-02-28T09:37:56.846Z,52.12
2023-02-28T09:43:02.429Z,51.73
2023-02-28T09:48:12.791Z,52.14
2023-02-28T09:53:24.719Z,51.15
2023-02-28T09:58:37.312Z,51.42
2023-02-28T10:03:42.906Z,51.33
2023-02-28T10:08:54.757Z,51.30
2023-02-28T10:14:07.066Z,52.48
2023-02-28T10:19:19.186Z,51.47
2023-02-28T10:24:32.938Z,52.53
2023-02-28T10:29:37.990Z,51.77
2023-02-28T10:34:41.535Z,52.11
2023-02-28T10:39:47.011Z,52.82
2023-02-28T10:44:52.073Z,52.75
2023-02-28T10:49:56.100Z,52.91
2023-02-28T10:55:17.402Z,53.10
2023-02-28T11:00:26.559Z,53.27
2023-02-28T11:05:32.742Z,53.29
2023-02-28T11:10:37.116Z,52.79
2023-02-28T11:15:42.298Z,53.00
2023-02-28T11:20:52.079Z,52.99
2023-02-28T11:25:59.041Z,53.69
2023-02-28T11:31:07.556Z,53.52
2023-02-28T11:36:15.100Z,53.44
2023-02-28T11:41:44.190Z,53.45
2023-02-28T11:46:54.616Z,54.08
2023-02-28T11:52:07.536Z,54.68
2023-02-28T11:57:26.140Z,54.69
2023-02-28T12:02:35.385Z,54.73
2023-02-28T12:07:45.143Z,55.28
2023-02-28T12:13:02.203Z,55.78
2023-02-28T12:18:23.083Z,56.49
2023-02-28T12:23:48.803Z,55.90
2023-02-28T12:28:56.628Z,55.79
2023-02-28T12:34:05.706Z,55.72
2023-02-28T12:39:15.720Z,56.49
2023-02-28T12:44:24.256Z,56.68
2023-02-28T12:49:34.008Z,56.29
2023-02-28T12:54:46.916Z,55.94
2023-02-28T12:59:54.060Z,56.00
2023-02-28T13:05:41.544Z,55.96
2023-02-28T13:10:47.145Z,56.18
2023-02-28T13:16:02.116Z,55.97
2023-02-28T13:21:08.691Z,56.30
2023-02-28T13:26:14.148Z,57.11
2023-02-28T13:31:19.804Z,56.89
2023-02-28T13:36:31.208Z,56.83
2023-02-28T13:41:49.001Z,57.09
2023-02-28T13:47:23.543Z,57.02
2023-02-28T13:52:28.808Z,56.76
2023-02-28T13:57:46.249Z,57.42
2023-02-28T14:03:10.366Z,57.52
2023-02-28T14:08:19.857Z,57.05
2023-02-28T14:13:47.992Z,57.92
2023-02-28T14:18:57.568Z,57.63
2023-02-28T14:24:33.510Z,58.21
2023-02-28T14:30:18.059Z,57.99
2023-02-28T14:35:38.762Z,59.02
2023-02-28T14:40:43.180Z,58.52
2023-02-28T14:45:53.381Z,59.48
2023-02-28T14:50:59.549Z,58.67
2023-02-28T14:56:03.012Z,59.06
2023-02-28T15:01:08.411Z,59.28
2023-02-28T15:06:17.792Z,59.20
2023-02-28T15:11:23.487Z,59.46
2023-02-28T15:16:34.024Z,59.02
2023-02-28T15:21:39.968Z,58.94
2023-02-28T15:26:55.912Z,59.32
2023-02-28T15:32:05.618Z,58.63
2023-02-28T15:37:31.299Z,59.17
2023-02-28T15:42:34.768Z,59.18
2023-02-28T15:47:39.688Z,59.58
2023-02-28T15:52:45.949Z,59.67
2023-02-28T15:57:52.359Z,60.02
2023-02-28T16:02:57.293Z,59.25
2023-02-28T16:08:02.997Z,59.76
2023-02-28T16:13:06.930Z,59.88
2023-02-28T16:18:13.953Z,59.59
2023-02-28T16:23:17.440Z,59.77
2023-02-28T16:28:25.643Z,59.58
2023-02-28T16:33:30.534Z,59.57
2023-02-28T16:38:35.395Z,59.62
2023-02-28T16:43:40.226Z,59.69
2023-02-28T16:48:45.223Z,59.87
2023-02-28T16:53:48.765Z,59.84
2023-02-28T16:58:53.319Z,60.19
2023-02-28T17:03:58.165Z,60.16
2023-02-28T17:09:01.464Z,59.27
2023-02-28T17:14:05.579Z,60.03
2023-02-28T17:19:14.635Z,59.47
2023-02-28T17:24:28.940Z,59.01
2023-02-28T17:29:33.853Z,59.28
2023-02-28T17:34:38.802Z,60.28
2023-02-28T17:39:42.047Z,61.59
2023-02-28T17:44:45.407Z,63.30
2023-02-28T17:49:50.352Z,63.43
2023-02-28T17:54:53.739Z,63.34
2023-02-28T17:59:58.049Z,63.24
2023-02-28T18:05:05.435Z,63.21
2023-02-28T18:10:16.346Z,62.82
2023-02-28T18:15:22.163Z,62.86
2023-02-28T18:20:27.203Z,61.95
2023-02-28T18:25:31.170Z,61.26
2023-02-28T18:30:38.277Z,60.47
2023-02-28T18:35:44.986Z,59.72
2023-02-28T18:40:55.254Z,59.08
2023-02-28T18:45:59.234Z,58.82
2023-02-28T18:51:09.504Z,58.45
2023-02-28T18:56:14.716Z,58.10
2023-02-28T19:01:21.214Z,57.74
2023-02-28T19:06:26.281Z,57.72
2023-02-28T19:11:30.324Z,57.24
2023-02-28T19:16:34.072Z,56.67
2023-02-28T19:21:39.110Z,55.65
2023-02-28T19:26:42.479Z,54.22
2023-02-28T19:31:46.170Z,53.33
2023-02-28T19:36:51.161Z,53.17
2023-02-28T19:41:54.459Z,52.13
2023-02-28T19:46:57.942Z,51.76
2023-02-28T19:52:03.239Z,51.06
2023-02-28T19:57:06.813Z,50.99
2023-02-28T20:02:15.438Z,50.34
2023-02-28T20:07:21.500Z,50.47
2023-02-28T20:12:25.232Z,50.17
2023-02-28T20:17:30.558Z,50.11
2023-02-28T20:22:38.269Z,50.11
2023-02-28T20:27:42.162Z,50.86
2023-02-28T20:32:45.596Z,50.73
2023-02-28T20:37:50.762Z,50.16
2023-02-28T20:42:54.280Z,49.68
2023-02-28T20:47:57.675Z,48.72
2023-02-28T20:53:02.577Z,48.25
2023-02-28T20:58:06.102Z,48.10
2023-02-28T21:03:09.689Z,48.69
2023-02-28T21:08:14.454Z,48.09
2023-02-28T21:13:17.662Z,48.10
2023-02-28T21:18:21.271Z,48.44
2023-02-28T21:23:26.737Z,48.66
2023-02-28T21:28:30.136Z,48.20
2023-02-28T21:33:33.812Z,48.24
2023-02-28T21:38:39.851Z,48.42
2023-02-28T21:43:44.526Z,47.98
2023-02-28T21:48:49.271Z,47.99
2023-02-28T21:53:54.394Z,48.43
2023-02-28T21:59:00.709Z,48.96
2023-02-28T22:04:05.984Z,48.94
2023-02-28T22:09:11.859Z,48.66
2023-02-28T22:14:15.255Z,48.71
2023-02-28T22:19:18.751Z,48.77
2023-02-28T22:24:24.906Z,48.79
2023-02-28T22:29:28.584Z,48.88
2023-02-28T22:34:31.932Z,49.05
2023-02-28T22:39:36.784Z,48.95
2023-02-28T22:44:41.278Z,48.62
2023-02-28T22:49:44.811Z,49.07
2023-02-28T22:54:53.399Z,49.15
2023-02-28T22:59:56.925Z,49.09
2023-02-28T23:05:00.323Z,49.30
2023-02-28T23:10:07.767Z,49.52
2023-02-28T23:15:12.829Z,49.82
2023-02-28T23:20:20.818Z,49.10
2023-02-28T23:25:25.837Z,48.86
2023-02-28T23:30:29.802Z,49.49
2023-02-28T23:35:33.641Z,49.01
2023-02-28T23:40:38.643Z,49.35
2023-02-28T23:45:46.998Z,48.85
2023-02-28T23:50:50.474Z,48.92
2023-02-28T23:55:55.328Z,49.51
